CHICAGO AURORA MUNICIPAL, IL, United States (KARR) 41-46N 088-28W 215M
Wind: from the E (090 degrees) at 21 MPH (18 KT) gusting to 31 MPH (27 KT):0
Visibility: 10 mile(s):0
Sky conditions: clear
Temperature: 73.0 F (22.8 C)
Dew Point: 61.0 F (16.1 C)
Relative Humidity: 65%
Pressure (altimeter): 29.67 in. Hg (1004 hPa)
ob: KARR 241952Z 09018G27KT 10SM CLR 23/16 A2967 RMK AO2 PK WND 11030/1935 SLP042 T02280161
Raw METAR:KARR 241952Z 09018G27KT 10SM CLR 23/16 A2967 RMK AO2 PK WND 11030/1935 SLP042 T02280161
cycle: 20
Back to top

CHICAGO/WEST CH DUPAGE, IL, United States (KDPA) 41-54N 88-15W 230M
Wind: from the E (100 degrees) at 16 MPH (14 KT) gusting to 24 MPH (21 KT):0
Visibility: 10 mile(s):0
Sky conditions: clear
Temperature: 70.0 F (21.1 C)
Dew Point: 61.0 F (16.1 C)
Relative Humidity: 73%
Pressure (altimeter): 29.7 in. Hg (1005 hPa)
ob: KDPA 241952Z 10014G21KT 10SM CLR 21/16 A2970 RMK AO2 PK WND 10026/1923 SLP054 T02110161
Raw METAR:KDPA 241952Z 10014G21KT 10SM CLR 21/16 A2970 RMK AO2 PK WND 10026/1923 SLP054 T02110161
cycle: 20
Back to top

De Kalb, De Kalb Taylor Municipal Airport, IL, United States (KDKB) 41-55-55N 088-42-30W
Wind: from the E (100 degrees) at 18 MPH (16 KT) gusting to 25 MPH (22 KT):0
Visibility: 10 mile(s):0
Sky conditions: clear
Temperature: 72.9 F (22.7 C)
Dew Point: 59.2 F (15.1 C)
Relative Humidity: 62%
Pressure (altimeter): 29.7 in. Hg (1005 hPa)
ob: KDKB 242015Z AUTO 10016G22KT 10SM CLR 23/15 A2970 RMK AO2 T02270151
Raw METAR:KDKB 242015Z AUTO 10016G22KT 10SM CLR 23/15 A2970 RMK AO2 T02270151
cycle: 20
Back to top

Joliet, Joliet Regional Airport, IL, United States (KJOT) 41-31-05N 088-10-31W
Wind: from the E (090 degrees) at 9 MPH (8 KT):0
Visibility: 10 mile(s):0
Sky conditions: clear
Temperature: 70.2 F (21.2 C)
Dew Point: 62.6 F (17.0 C)
Relative Humidity: 76%
Pressure (altimeter): 29.7 in. Hg (1005 hPa)
ob: KJOT 242015Z AUTO 09008KT 10SM CLR 21/17 A2970 RMK AO2 T02120170
Raw METAR:KJOT 242015Z AUTO 09008KT 10SM CLR 21/17 A2970 RMK AO2 T02120170
cycle: 20
Back to top

Kankakee, Greater Kankakee Airport, IL, United States (KIKK) 41-04-17N 087-50-47W
Wind: from the SSE (150 degrees) at 8 MPH (7 KT):0
Visibility: 10 mile(s):0
Sky conditions: clear
Weather: Lightning observed
Temperature: 69.3 F (20.7 C)
Dew Point: 57.4 F (14.1 C)
Relative Humidity: 65%
Pressure (altimeter): 29.75 in. Hg (1007 hPa)
ob: KIKK 242015Z AUTO 15007KT 10SM CLR 21/14 A2975 RMK AO2 LTG DSNT E AND S T02070141 PWINO
Raw METAR:KIKK 242015Z AUTO 15007KT 10SM CLR 21/14 A2975 RMK AO2 LTG DSNT E AND S T02070141 PWINO
cycle: 20
Back to top

Morris, Morris Municipal-James R Washburn Field Airport, IL, United States (KC09) 41-25-31N 088-25-07W
Wind: from the ESE (110 degrees) at 14 MPH (12 KT) gusting to 20 MPH (17 KT):0
Visibility: 10 mile(s):0
Weather: Lightning observed
Temperature: 72.7 F (22.6 C)
Dew Point: 60.8 F (16.0 C)
Relative Humidity: 66%
Pressure (altimeter): 29.68 in. Hg (1005 hPa)
ob: KC09 242015Z AUTO 11012G17KT 10SM 23/16 A2968 RMK AO2 LTG DSNT SE AND S T02260160
Raw METAR:KC09 242015Z AUTO 11012G17KT 10SM 23/16 A2968 RMK AO2 LTG DSNT SE AND S T02260160
cycle: 20
Back to top

Peru, Illinois Valley Regional-Walter A Duncan Field Airport, IL, United States (KVYS) 41-21-07N 089-09-11W
Wind: from the ESE (120 degrees) at 17 MPH (15 KT):0
Visibility: 10 mile(s):0
Sky conditions: clear
Temperature: 76.6 F (24.8 C)
Dew Point: 59.4 F (15.2 C)
Relative Humidity: 55%
Pressure (altimeter): 29.69 in. Hg (1005 hPa)
ob: KVYS 242015Z AUTO 12015KT 10SM CLR 25/15 A2969 RMK AO2 T02480152 TSNO
Raw METAR:KVYS 242015Z AUTO 12015KT 10SM CLR 25/15 A2969 RMK AO2 T02480152 TSNO
cycle: 20
Back to top

Rochelle, Rochelle Municipal-Koritz Field Airport, IL, United States (KRPJ) 41-53-35N 089-04-42W
Wind: from the E (100 degrees) at 15 MPH (13 KT):0
Visibility: 10 mile(s):0
Sky conditions: clear
Temperature: 74.7 F (23.7 C)
Dew Point: 60.8 F (16.0 C)
Relative Humidity: 62%
Pressure (altimeter): 29.68 in. Hg (1005 hPa)
ob: KRPJ 242015Z AUTO 10013KT 10SM CLR 24/16 A2968 RMK AO2 T02370160
Raw METAR:KRPJ 242015Z AUTO 10013KT 10SM CLR 24/16 A2968 RMK AO2 T02370160
cycle: 20
Back to top